Terminal Aerodrome Forecast
Issued by NWS

Home | Current Version | Previous Version | Text Only | Print | Product List | Glossary On
Versions: 1 2 3 4 5 6 7 8 9 10 11 12 13 14 15 16 17 18 19 20 21 22 23 24
000
FTUS41 KOKX 161120
TAFSWF
TAF
KSWF 161120Z 1612/1718 00000KT P6SM SKC
     FM161500 26005KT P6SM SKC
     FM162300 VRB02KT P6SM SCT120 OVC250
     FM170700 00000KT P6SM OVC070
     FM171300 VRB02KT 6SM -FZRA BKN035 OVC050
     FM171500 VRB04KT 4SM -RA BR BKN011 OVC020
      AMD NOT SKED=

USA.gov is the U.S. government's official web portal to all federal, state and local government web resources and services.